createdAt,value
2018-11-11T00:00:09.989Z,9.80
2018-11-11T00:02:37.218Z,9.80
2018-11-11T00:05:05.288Z,9.80
2018-11-11T00:07:32.667Z,9.80
2018-11-11T00:09:59.872Z,9.80
2018-11-11T00:12:27.088Z,9.80
2018-11-11T00:14:54.451Z,9.80
2018-11-11T00:17:22.250Z,9.80
2018-11-11T00:19:49.479Z,9.80
2018-11-11T00:22:16.743Z,9.80
2018-11-11T00:24:43.967Z,9.80
2018-11-11T00:27:11.464Z,9.80
2018-11-11T00:29:38.839Z,9.80
2018-11-11T00:32:06.268Z,9.80
2018-11-11T00:34:33.509Z,9.80
2018-11-11T00:37:00.861Z,9.80
2018-11-11T00:39:28.180Z,9.80
2018-11-11T00:41:55.387Z,9.80
2018-11-11T00:44:22.778Z,9.80
2018-11-11T00:46:50.023Z,9.80
2018-11-11T00:49:17.295Z,9.80
2018-11-11T00:51:44.646Z,9.80
2018-11-11T00:54:11.882Z,9.80
2018-11-11T00:56:39.115Z,9.80
2018-11-11T00:59:06.865Z,9.80
2018-11-11T01:01:34.112Z,9.80
2018-11-11T01:04:01.340Z,9.80
2018-11-11T01:06:28.698Z,9.70
2018-11-11T01:08:55.939Z,9.70
2018-11-11T01:11:23.201Z,9.70
2018-11-11T01:13:50.539Z,9.70
2018-11-11T01:16:17.772Z,9.80
2018-11-11T01:18:45.000Z,9.80
2018-11-11T01:21:12.288Z,9.80
2018-11-11T01:23:39.532Z,9.80
2018-11-11T01:26:06.759Z,9.80
2018-11-11T01:28:34.173Z,9.80
2018-11-11T01:31:01.427Z,9.70
2018-11-11T01:33:28.691Z,9.70
2018-11-11T01:35:56.084Z,9.70
2018-11-11T01:38:23.314Z,9.70
2018-11-11T01:40:50.540Z,9.70
2018-11-11T01:43:17.916Z,9.80
2018-11-11T01:45:45.140Z,9.70
2018-11-11T01:48:12.361Z,9.70
2018-11-11T01:50:39.720Z,9.70
2018-11-11T01:53:06.971Z,9.70
2018-11-11T01:55:34.202Z,9.70
2018-11-11T01:58:01.559Z,9.70
2018-11-11T02:00:28.827Z,9.70
2018-11-11T02:02:56.058Z,9.70
2018-11-11T02:05:23.399Z,9.70
2018-11-11T02:07:50.641Z,9.60
2018-11-11T02:10:17.903Z,9.70
2018-11-11T02:12:45.947Z,9.70
2018-11-11T02:15:14.419Z,9.70
2018-11-11T02:17:41.660Z,9.60
2018-11-11T02:20:11.507Z,9.60
2018-11-11T02:22:38.735Z,9.60
2018-11-11T02:25:06.297Z,9.60
2018-11-11T02:27:33.691Z,9.60
2018-11-11T02:30:00.938Z,9.60
2018-11-11T02:32:28.244Z,9.60
2018-11-11T02:34:55.513Z,9.60
2018-11-11T02:37:22.743Z,9.60
2018-11-11T02:39:49.992Z,9.60
2018-11-11T02:42:17.354Z,9.60
2018-11-11T02:44:44.586Z,9.60
2018-11-11T02:47:11.818Z,9.60
2018-11-11T02:49:39.147Z,9.50
2018-11-11T02:52:06.400Z,9.50
2018-11-11T02:54:33.638Z,9.50
2018-11-11T02:57:00.986Z,9.50
2018-11-11T02:59:28.241Z,9.50
2018-11-11T03:01:55.480Z,9.50
2018-11-11T03:04:22.907Z,9.40
2018-11-11T03:06:50.088Z,9.40
2018-11-11T03:09:17.330Z,9.40
2018-11-11T03:11:44.606Z,9.40
2018-11-11T03:14:11.847Z,9.40
2018-11-11T03:16:39.157Z,9.40
2018-11-11T03:19:06.933Z,9.40
2018-11-11T03:21:34.181Z,9.40
2018-11-11T03:24:01.740Z,9.40
2018-11-11T03:26:29.086Z,9.40
2018-11-11T03:28:56.339Z,9.40
2018-11-11T03:31:23.634Z,9.40
2018-11-11T03:33:50.988Z,9.40
2018-11-11T03:36:18.430Z,9.40
2018-11-11T03:38:46.014Z,9.40
2018-11-11T03:41:13.485Z,9.40
2018-11-11T03:43:40.722Z,9.40
2018-11-11T03:46:07.977Z,9.40
2018-11-11T03:48:35.321Z,9.40
2018-11-11T03:51:02.571Z,9.40
2018-11-11T03:53:29.790Z,9.40
2018-11-11T03:55:57.151Z,9.40
2018-11-11T03:58:24.375Z,9.40
2018-11-11T04:00:51.615Z,9.40
2018-11-11T04:03:18.904Z,9.40
2018-11-11T04:05:46.140Z,9.40
2018-11-11T04:08:13.374Z,9.40
2018-11-11T04:10:40.722Z,9.40
2018-11-11T04:13:07.941Z,9.30
2018-11-11T04:15:35.187Z,9.30
2018-11-11T04:18:02.544Z,9.30
2018-11-11T04:20:29.768Z,9.30
2018-11-11T04:22:57.019Z,9.30
2018-11-11T04:25:24.367Z,9.30
2018-11-11T04:27:51.600Z,9.30
2018-11-11T04:30:18.830Z,9.30
2018-11-11T04:32:46.178Z,9.30
2018-11-11T04:35:13.487Z,9.30
2018-11-11T04:37:40.756Z,9.30
2018-11-11T04:40:09.362Z,9.30
2018-11-11T04:42:36.863Z,9.30
2018-11-11T04:45:05.464Z,9.30
2018-11-11T04:47:33.531Z,9.20
2018-11-11T04:50:00.802Z,9.20
2018-11-11T04:52:28.028Z,9.30
2018-11-11T04:54:55.370Z,9.20
2018-11-11T04:57:22.598Z,9.20
2018-11-11T04:59:49.859Z,9.30
2018-11-11T05:02:17.195Z,9.20
2018-11-11T05:04:44.529Z,9.20
2018-11-11T05:07:11.692Z,9.20
2018-11-11T05:09:38.946Z,9.20
2018-11-11T05:12:06.195Z,9.20
2018-11-11T05:14:33.389Z,9.20
2018-11-11T05:17:00.778Z,9.20
2018-11-11T05:19:28.041Z,9.20
2018-11-11T05:21:55.312Z,9.20
2018-11-11T05:24:22.644Z,9.20
2018-11-11T05:26:49.871Z,9.20
2018-11-11T05:29:17.112Z,9.20
2018-11-11T05:31:44.476Z,9.20
2018-11-11T05:34:11.709Z,9.20
2018-11-11T05:36:38.939Z,9.10
2018-11-11T05:39:08.332Z,9.20
2018-11-11T05:41:35.638Z,9.10
2018-11-11T05:44:02.887Z,9.20
2018-11-11T05:46:30.274Z,9.20
2018-11-11T05:48:57.507Z,9.20
2018-11-11T05:51:24.743Z,9.20
2018-11-11T05:53:52.091Z,9.20
2018-11-11T05:56:19.335Z,9.20
2018-11-11T05:58:46.590Z,9.20
2018-11-11T06:01:13.947Z,9.20
2018-11-11T06:03:41.192Z,9.20
2018-11-11T06:06:09.167Z,9.20
2018-11-11T06:08:37.182Z,9.20
2018-11-11T06:11:04.507Z,9.20
2018-11-11T06:13:31.815Z,9.20
2018-11-11T06:15:59.116Z,9.20
2018-11-11T06:18:26.375Z,9.20
2018-11-11T06:20:53.629Z,9.20
2018-11-11T06:23:20.978Z,9.20
2018-11-11T06:25:48.231Z,9.20
2018-11-11T06:28:15.481Z,9.20
2018-11-11T06:30:42.826Z,9.20
2018-11-11T06:33:10.038Z,9.20
2018-11-11T06:35:37.934Z,9.20
2018-11-11T06:38:05.114Z,9.20
2018-11-11T06:40:32.339Z,9.20
2018-11-11T06:42:59.571Z,9.20
2018-11-11T06:45:26.852Z,9.20
2018-11-11T06:47:54.141Z,9.20
2018-11-11T06:50:21.367Z,9.20
2018-11-11T06:52:48.706Z,9.20
2018-11-11T06:55:15.979Z,9.20
2018-11-11T06:57:43.212Z,9.20
2018-11-11T07:00:12.655Z,9.20
2018-11-11T07:02:50.135Z,9.20
2018-11-11T07:05:17.389Z,9.20
2018-11-11T07:07:44.626Z,9.20
2018-11-11T07:10:11.866Z,9.20
2018-11-11T07:12:39.209Z,9.20
2018-11-11T07:15:06.451Z,9.20
2018-11-11T07:17:33.675Z,9.20
2018-11-11T07:20:01.014Z,9.20
2018-11-11T07:22:28.245Z,9.20
2018-11-11T07:24:55.474Z,9.20
2018-11-11T07:27:22.814Z,9.20
2018-11-11T07:29:50.043Z,9.20
2018-11-11T07:32:17.287Z,9.20
2018-11-11T07:34:44.637Z,9.20
2018-11-11T07:37:11.868Z,9.20
2018-11-11T07:39:39.110Z,9.20
2018-11-11T07:42:06.458Z,9.20
2018-11-11T07:44:33.676Z,9.20
2018-11-11T07:47:00.913Z,9.20
2018-11-11T07:49:28.505Z,9.20
2018-11-11T07:51:55.741Z,9.20
2018-11-11T07:54:22.980Z,9.20
2018-11-11T07:56:50.343Z,9.20
2018-11-11T07:59:17.575Z,9.20
2018-11-11T08:01:44.973Z,9.20
2018-11-11T08:04:12.172Z,9.30
2018-11-11T08:06:39.389Z,9.30
2018-11-11T08:09:06.938Z,9.30
2018-11-11T08:11:45.877Z,9.30
2018-11-11T08:14:13.111Z,9.30
2018-11-11T08:16:40.384Z,9.30
2018-11-11T08:19:07.707Z,9.30
2018-11-11T08:21:34.938Z,9.40
2018-11-11T08:24:02.231Z,9.40
2018-11-11T08:26:29.581Z,9.40
2018-11-11T08:28:56.807Z,9.40
2018-11-11T08:31:24.041Z,9.40
2018-11-11T08:33:51.311Z,9.40
2018-11-11T08:36:18.546Z,9.40
2018-11-11T08:38:45.774Z,9.50
2018-11-11T08:41:13.105Z,9.50
2018-11-11T08:43:40.318Z,9.50
2018-11-11T08:46:07.526Z,9.60
2018-11-11T08:48:34.891Z,9.60
2018-11-11T08:51:02.090Z,9.70
2018-11-11T08:53:29.392Z,9.70
2018-11-11T08:55:56.675Z,9.70
2018-11-11T08:58:23.921Z,9.70
2018-11-11T09:00:51.183Z,9.70
2018-11-11T09:03:18.518Z,9.80
2018-11-11T09:05:45.746Z,9.70
2018-11-11T09:08:12.970Z,9.70
2018-11-11T09:10:40.987Z,9.70
2018-11-11T09:13:08.237Z,9.60
2018-11-11T09:15:35.462Z,9.60
2018-11-11T09:18:02.822Z,9.60
2018-11-11T09:20:30.057Z,9.60
2018-11-11T09:22:57.278Z,9.60
2018-11-11T09:25:24.582Z,9.50
2018-11-11T09:27:51.857Z,9.50
2018-11-11T09:30:19.174Z,9.50
2018-11-11T09:32:46.477Z,9.50
2018-11-11T09:35:13.815Z,9.60
2018-11-11T09:37:41.279Z,9.50
2018-11-11T09:40:09.647Z,9.50
2018-11-11T09:42:36.957Z,9.50
2018-11-11T09:45:06.883Z,9.50
2018-11-11T09:47:34.260Z,9.50
2018-11-11T09:50:01.499Z,9.50
2018-11-11T09:52:28.735Z,9.50
2018-11-11T09:54:56.106Z,9.50
2018-11-11T09:57:23.347Z,9.60
2018-11-11T09:59:50.667Z,9.60
2018-11-11T10:02:18.370Z,9.70
2018-11-11T10:05:04.943Z,9.70
2018-11-11T10:07:37.059Z,9.70
2018-11-11T10:10:09.801Z,9.70
2018-11-11T10:12:42.208Z,9.60
2018-11-11T10:15:15.994Z,9.70
2018-11-11T10:18:20.498Z,9.60
2018-11-11T10:20:52.152Z,9.50
2018-11-11T10:23:24.048Z,9.50
2018-11-11T10:26:16.715Z,9.50
2018-11-11T10:28:54.815Z,9.40
2018-11-11T10:31:41.661Z,9.40
2018-11-11T10:34:12.719Z,9.40
2018-11-11T10:36:48.317Z,9.40
2018-11-11T10:40:21.214Z,9.50
2018-11-11T10:42:54.305Z,9.50
2018-11-11T10:45:29.559Z,9.50
2018-11-11T10:48:05.503Z,9.50
2018-11-11T10:50:35.728Z,9.60
2018-11-11T10:53:02.989Z,9.60
2018-11-11T10:55:30.249Z,9.60
2018-11-11T10:57:57.619Z,9.60
2018-11-11T11:00:26.872Z,9.60
2018-11-11T11:02:54.096Z,9.70
2018-11-11T11:05:21.507Z,9.70
2018-11-11T11:07:48.783Z,9.70
2018-11-11T11:10:16.032Z,9.70
2018-11-11T11:12:50.139Z,9.70
2018-11-11T11:15:17.441Z,9.70
2018-11-11T11:17:44.703Z,9.70
2018-11-11T11:20:12.004Z,9.80
2018-11-11T11:22:39.238Z,9.80
2018-11-11T11:25:08.267Z,9.80
2018-11-11T11:27:35.598Z,9.80
2018-11-11T11:30:02.877Z,9.70
2018-11-11T11:32:30.111Z,9.70
2018-11-11T11:34:57.464Z,9.70
2018-11-11T11:37:24.726Z,9.70
2018-11-11T11:39:51.968Z,9.60
2018-11-11T11:42:19.250Z,9.60
2018-11-11T11:44:46.571Z,9.60
2018-11-11T11:47:13.785Z,9.60
2018-11-11T11:49:41.139Z,9.70
2018-11-11T11:52:08.449Z,9.70
2018-11-11T11:54:36.199Z,9.70
2018-11-11T11:57:03.659Z,9.70
2018-11-11T11:59:30.918Z,9.70
2018-11-11T12:01:58.172Z,9.70
2018-11-11T12:04:25.691Z,9.80
2018-11-11T12:06:52.983Z,9.80
2018-11-11T12:09:20.259Z,9.70
2018-11-11T12:11:47.607Z,9.80
2018-11-11T12:14:14.848Z,9.80
2018-11-11T12:16:43.299Z,9.80
2018-11-11T12:19:10.596Z,9.70
2018-11-11T12:21:37.823Z,9.70
2018-11-11T12:24:05.122Z,9.70
2018-11-11T12:26:32.469Z,9.80
2018-11-11T12:28:59.728Z,9.80
2018-11-11T12:31:26.967Z,9.80
2018-11-11T12:33:54.272Z,9.80
2018-11-11T12:36:21.527Z,9.80
2018-11-11T12:38:48.784Z,9.80
2018-11-11T12:41:16.149Z,9.90
2018-11-11T12:43:43.910Z,9.80
2018-11-11T12:46:11.176Z,9.90
2018-11-11T12:48:38.705Z,9.90
2018-11-11T12:51:05.998Z,10.00
2018-11-11T12:53:33.239Z,9.90
2018-11-11T12:56:00.610Z,10.00
2018-11-11T12:58:27.959Z,9.90
2018-11-11T13:00:55.247Z,10.00
2018-11-11T13:03:22.511Z,10.00
2018-11-11T13:05:49.796Z,10.10
2018-11-11T13:08:17.097Z,10.20
2018-11-11T13:10:44.521Z,10.20
2018-11-11T13:13:11.795Z,10.20
2018-11-11T13:15:39.076Z,10.20
2018-11-11T13:18:06.451Z,10.20
2018-11-11T13:20:33.709Z,10.20
2018-11-11T13:23:01.044Z,10.20
2018-11-11T13:25:28.370Z,10.20
2018-11-11T13:27:55.650Z,10.30
2018-11-11T13:30:22.941Z,10.30
2018-11-11T13:32:50.325Z,10.30
2018-11-11T13:35:17.558Z,10.30
2018-11-11T13:37:45.710Z,10.20
2018-11-11T13:40:14.667Z,10.10
2018-11-11T13:42:42.108Z,10.00
2018-11-11T13:45:12.013Z,10.00
2018-11-11T13:47:39.439Z,9.90
2018-11-11T13:50:09.453Z,9.80
2018-11-11T13:52:36.672Z,9.80
2018-11-11T13:55:05.226Z,9.70
2018-11-11T13:57:32.462Z,9.70
2018-11-11T13:59:59.743Z,9.70
2018-11-11T14:02:27.090Z,9.60
2018-11-11T14:04:54.358Z,9.60
2018-11-11T14:07:21.788Z,9.60
2018-11-11T14:09:49.173Z,9.50
2018-11-11T14:12:16.429Z,9.50
2018-11-11T14:14:43.729Z,9.50
2018-11-11T14:17:11.099Z,9.50
2018-11-11T14:19:38.440Z,9.50
2018-11-11T14:22:05.671Z,9.40
2018-11-11T14:24:33.260Z,9.40
2018-11-11T14:27:00.873Z,9.40
2018-11-11T14:29:28.168Z,9.40
2018-11-11T14:31:55.613Z,9.40
2018-11-11T14:34:22.978Z,9.40
2018-11-11T14:36:50.220Z,9.40
2018-11-11T14:39:17.610Z,9.40
2018-11-11T14:41:44.863Z,9.40
2018-11-11T14:44:12.128Z,9.40
2018-11-11T14:46:40.140Z,9.30
2018-11-11T14:49:08.173Z,9.30
2018-11-11T14:51:35.422Z,9.30
2018-11-11T14:54:02.850Z,9.30
2018-11-11T14:56:30.188Z,9.30
2018-11-11T14:58:57.643Z,9.30
2018-11-11T15:01:24.911Z,9.30
2018-11-11T15:03:52.179Z,9.20
2018-11-11T15:06:19.467Z,9.20
2018-11-11T15:08:46.863Z,9.20
2018-11-11T15:11:14.142Z,9.20
2018-11-11T15:13:41.451Z,9.20
2018-11-11T15:16:08.867Z,9.20
2018-11-11T15:18:36.142Z,9.10
2018-11-11T15:21:03.615Z,9.10
2018-11-11T15:23:30.918Z,9.10
2018-11-11T15:25:58.181Z,9.10
2018-11-11T15:28:25.454Z,9.10
2018-11-11T15:30:52.949Z,9.10
2018-11-11T15:33:20.122Z,9.10
2018-11-11T15:35:47.431Z,9.10
2018-11-11T15:38:14.839Z,9.10
2018-11-11T15:40:42.098Z,9.20
2018-11-11T15:43:09.360Z,9.20
2018-11-11T15:45:36.774Z,9.20
2018-11-11T15:48:04.595Z,9.10
2018-11-11T15:50:32.838Z,9.10
2018-11-11T15:53:01.650Z,9.10
2018-11-11T15:55:30.451Z,9.10
2018-11-11T15:57:57.746Z,9.10
2018-11-11T16:00:26.602Z,9.10
2018-11-11T16:02:53.911Z,9.10
2018-11-11T16:05:21.275Z,9.10
2018-11-11T16:07:49.702Z,9.10
2018-11-11T16:10:19.231Z,9.10
2018-11-11T16:12:46.767Z,9.10
2018-11-11T16:15:20.666Z,9.10
2018-11-11T16:17:49.470Z,9.10
2018-11-11T16:20:18.196Z,9.10
2018-11-11T16:22:46.765Z,9.10
2018-11-11T16:25:14.085Z,9.10
2018-11-11T16:27:42.396Z,9.10
2018-11-11T16:30:12.237Z,9.20
2018-11-11T16:32:39.979Z,9.20
2018-11-11T16:35:08.998Z,9.20
2018-11-11T16:37:36.940Z,9.20
2018-11-11T16:40:07.019Z,9.20
2018-11-11T16:42:35.161Z,9.10
2018-11-11T16:45:02.748Z,9.20
2018-11-11T16:47:29.972Z,9.20
2018-11-11T16:49:57.303Z,9.20
2018-11-11T16:52:24.706Z,9.20
2018-11-11T16:54:52.626Z,9.20
2018-11-11T16:57:19.922Z,9.20
2018-11-11T16:59:47.385Z,9.20
2018-11-11T17:02:14.634Z,9.20
2018-11-11T17:04:41.898Z,9.20
2018-11-11T17:07:09.300Z,9.20
2018-11-11T17:09:36.595Z,9.20
2018-11-11T17:12:04.311Z,9.20
2018-11-11T17:14:31.697Z,9.20
2018-11-11T17:16:58.979Z,9.30
2018-11-11T17:19:26.270Z,9.30
2018-11-11T17:21:53.918Z,9.30
2018-11-11T17:24:21.007Z,9.30
2018-11-11T17:26:48.272Z,9.30
2018-11-11T17:29:15.754Z,9.30
2018-11-11T17:31:43.041Z,9.30
2018-11-11T17:34:10.319Z,9.30
2018-11-11T17:36:37.688Z,9.30
2018-11-11T17:39:08.331Z,9.30
2018-11-11T17:41:35.588Z,9.40
2018-11-11T17:44:03.061Z,9.40
2018-11-11T17:46:30.412Z,9.40
2018-11-11T17:48:57.760Z,9.40
2018-11-11T17:51:25.262Z,9.40
2018-11-11T17:53:53.152Z,9.40
2018-11-11T17:56:20.490Z,9.40
2018-11-11T17:58:47.860Z,9.40
2018-11-11T18:01:15.176Z,9.40
2018-11-11T18:03:42.447Z,9.40
2018-11-11T18:06:09.814Z,9.40
2018-11-11T18:08:37.067Z,9.40
2018-11-11T18:11:04.350Z,9.40
2018-11-11T18:13:31.993Z,9.40
2018-11-11T18:15:59.264Z,9.40
2018-11-11T18:18:26.538Z,9.40
2018-11-11T18:20:53.913Z,9.40
2018-11-11T18:23:21.182Z,9.40
2018-11-11T18:25:48.412Z,9.40
2018-11-11T18:28:15.816Z,9.30
2018-11-11T18:30:43.105Z,9.40
2018-11-11T18:33:10.415Z,9.30
2018-11-11T18:35:37.817Z,9.40
2018-11-11T18:38:05.285Z,9.40
2018-11-11T18:40:32.571Z,9.30
2018-11-11T18:42:59.939Z,9.30
2018-11-11T18:45:28.467Z,9.30
2018-11-11T18:47:55.768Z,9.20
2018-11-11T18:50:27.749Z,9.20
2018-11-11T18:52:55.720Z,9.20
2018-11-11T18:55:23.035Z,9.20
2018-11-11T18:57:50.462Z,9.20
2018-11-11T19:00:26.594Z,9.20
2018-11-11T19:02:55.702Z,9.20
2018-11-11T19:05:23.787Z,9.30
2018-11-11T19:07:51.329Z,9.30
2018-11-11T19:10:20.367Z,9.30
2018-11-11T19:12:48.584Z,9.30
2018-11-11T19:15:16.695Z,9.40
2018-11-11T19:17:44.891Z,9.40
2018-11-11T19:20:13.567Z,9.40
2018-11-11T19:22:40.861Z,9.40
2018-11-11T19:25:11.025Z,9.40
2018-11-11T19:27:38.344Z,9.40
2018-11-11T19:30:06.689Z,9.40
2018-11-11T19:32:34.142Z,9.40
2018-11-11T19:35:01.447Z,9.40
2018-11-11T19:37:28.715Z,9.40
2018-11-11T19:39:56.150Z,9.40
2018-11-11T19:42:23.430Z,9.40
2018-11-11T19:44:50.712Z,9.40
2018-11-11T19:47:18.112Z,9.40
2018-11-11T19:49:45.413Z,9.50
2018-11-11T19:52:12.712Z,9.40
2018-11-11T19:54:40.177Z,9.50
2018-11-11T19:57:07.442Z,9.50
2018-11-11T19:59:34.680Z,9.40
2018-11-11T20:02:02.088Z,9.40
2018-11-11T20:04:29.394Z,9.40
2018-11-11T20:06:56.777Z,9.40
2018-11-11T20:09:24.187Z,9.40
2018-11-11T20:11:51.455Z,9.40
2018-11-11T20:14:18.844Z,9.40
2018-11-11T20:16:46.223Z,9.40
2018-11-11T20:19:13.574Z,9.50
2018-11-11T20:21:40.883Z,9.50
2018-11-11T20:24:08.258Z,9.50
2018-11-11T20:26:35.533Z,9.50
2018-11-11T20:29:02.922Z,9.50
2018-11-11T20:31:30.361Z,9.50
2018-11-11T20:33:57.654Z,9.50
2018-11-11T20:36:24.945Z,9.50
2018-11-11T20:38:52.288Z,9.50
2018-11-11T20:41:19.595Z,9.50
2018-11-11T20:43:46.918Z,9.50
2018-11-11T20:46:14.347Z,9.50
2018-11-11T20:48:41.619Z,9.50
2018-11-11T20:51:08.896Z,9.60
2018-11-11T20:53:36.275Z,9.60
2018-11-11T20:56:03.691Z,9.60
2018-11-11T20:58:30.999Z,9.60
2018-11-11T21:00:58.399Z,9.60
2018-11-11T21:03:25.694Z,9.70
2018-11-11T21:05:53.035Z,9.70
2018-11-11T21:08:20.402Z,9.70
2018-11-11T21:10:47.659Z,9.70
2018-11-11T21:13:14.912Z,9.70
2018-11-11T21:15:42.309Z,9.70
2018-11-11T21:18:09.572Z,9.70
2018-11-11T21:20:36.844Z,9.70
2018-11-11T21:23:04.546Z,9.70
2018-11-11T21:25:31.826Z,9.80
2018-11-11T21:27:59.050Z,9.80
2018-11-11T21:30:30.337Z,9.80
2018-11-11T21:32:57.779Z,9.80
2018-11-11T21:35:25.082Z,9.80
2018-11-11T21:37:52.510Z,9.80
2018-11-11T21:40:20.929Z,9.70
2018-11-11T21:42:48.869Z,9.70
2018-11-11T21:45:17.571Z,9.70
2018-11-11T21:47:45.222Z,9.70
2018-11-11T21:50:13.720Z,9.70
2018-11-11T21:52:42.311Z,9.70
2018-11-11T21:55:09.744Z,9.70
2018-11-11T21:57:37.025Z,9.70
2018-11-11T22:00:06.047Z,9.70
2018-11-11T22:02:33.334Z,9.70
2018-11-11T22:05:00.590Z,9.60
2018-11-11T22:07:27.866Z,9.60
2018-11-11T22:09:55.191Z,9.60
2018-11-11T22:12:22.387Z,9.60
2018-11-11T22:14:49.752Z,9.60
2018-11-11T22:17:17.000Z,9.60
2018-11-11T22:19:44.275Z,9.60
2018-11-11T22:22:11.586Z,9.60
2018-11-11T22:24:38.831Z,9.60
2018-11-11T22:27:06.170Z,9.60
2018-11-11T22:29:33.435Z,9.60
2018-11-11T22:32:01.436Z,9.60
2018-11-11T22:34:28.687Z,9.50
2018-11-11T22:36:55.964Z,9.50
2018-11-11T22:39:23.231Z,9.50
2018-11-11T22:41:50.459Z,9.60
2018-11-11T22:44:17.870Z,9.50
2018-11-11T22:46:45.138Z,9.50
2018-11-11T22:49:12.463Z,9.50
2018-11-11T22:51:39.764Z,9.50
2018-11-11T22:54:07.021Z,9.50
2018-11-11T22:56:34.275Z,9.50
2018-11-11T22:59:01.656Z,9.60
2018-11-11T23:01:28.937Z,9.60
2018-11-11T23:03:56.188Z,9.60
2018-11-11T23:06:23.567Z,9.60
2018-11-11T23:08:50.859Z,9.60
2018-11-11T23:11:18.158Z,9.60
2018-11-11T23:13:45.550Z,9.60
2018-11-11T23:16:12.855Z,9.50
2018-11-11T23:18:40.091Z,9.60
2018-11-11T23:21:07.475Z,9.60
2018-11-11T23:23:34.726Z,9.50
2018-11-11T23:26:02.079Z,9.60
2018-11-11T23:28:29.564Z,9.60
2018-11-11T23:30:56.747Z,9.60
2018-11-11T23:33:24.000Z,9.60
2018-11-11T23:35:51.560Z,9.50
2018-11-11T23:38:19.039Z,9.60
2018-11-11T23:40:46.311Z,9.50
2018-11-11T23:43:13.707Z,9.60
2018-11-11T23:45:40.959Z,9.60
2018-11-11T23:48:08.206Z,9.60
2018-11-11T23:50:35.608Z,9.60
2018-11-11T23:53:02.916Z,9.60
2018-11-11T23:55:30.151Z,9.60
2018-11-11T23:57:57.514Z,9.60
